sensor_id;sensor_type;location;lat;lon;timestamp;P1;durP1;ratioP1;P2;durP2;ratioP2
815;SDS011;25928;51.062;13.752;2022-09-14T00:00:02;6.17;;;5.57;;
815;SDS011;25928;51.062;13.752;2022-09-14T00:02:29;6.50;;;5.43;;
815;SDS011;25928;51.062;13.752;2022-09-14T00:04:55;6.50;;;4.97;;
815;SDS011;25928;51.062;13.752;2022-09-14T00:07:21;5.87;;;5.00;;
815;SDS011;25928;51.062;13.752;2022-09-14T00:09:46;6.07;;;5.17;;
815;SDS011;25928;51.062;13.752;2022-09-14T00:12:13;6.03;;;5.53;;
815;SDS011;25928;51.062;13.752;2022-09-14T00:14:41;6.73;;;5.50;;
815;SDS011;25928;51.062;13.752;2022-09-14T00:17:07;6.10;;;5.60;;
815;SDS011;25928;51.062;13.752;2022-09-14T00:19:33;7.23;;;5.63;;
815;SDS011;25928;51.062;13.752;2022-09-14T00:21:58;6.70;;;6.10;;
815;SDS011;25928;51.062;13.752;2022-09-14T00:24:25;6.37;;;5.77;;
815;SDS011;25928;51.062;13.752;2022-09-14T00:26:52;8.30;;;6.30;;
815;SDS011;25928;51.062;13.752;2022-09-14T00:29:17;6.33;;;5.67;;
815;SDS011;25928;51.062;13.752;2022-09-14T00:31:43;6.47;;;5.87;;
815;SDS011;25928;51.062;13.752;2022-09-14T00:34:10;6.30;;;5.77;;
815;SDS011;25928;51.062;13.752;2022-09-14T00:36:40;6.17;;;5.10;;
815;SDS011;25928;51.062;13.752;2022-09-14T00:39:11;5.90;;;5.30;;
815;SDS011;25928;51.062;13.752;2022-09-14T00:41:39;7.30;;;5.93;;
815;SDS011;25928;51.062;13.752;2022-09-14T00:46:40;8.17;;;6.40;;
815;SDS011;25928;51.062;13.752;2022-09-14T00:49:13;8.63;;;5.90;;
815;SDS011;25928;51.062;13.752;2022-09-14T00:51:48;6.47;;;5.33;;
815;SDS011;25928;51.062;13.752;2022-09-14T00:54:24;6.37;;;5.57;;
815;SDS011;25928;51.062;13.752;2022-09-14T00:56:51;6.07;;;5.57;;
815;SDS011;25928;51.062;13.752;2022-09-14T00:59:21;5.97;;;5.40;;
815;SDS011;25928;51.062;13.752;2022-09-14T01:01:49;7.10;;;5.67;;
815;SDS011;25928;51.062;13.752;2022-09-14T01:04:15;5.90;;;5.40;;
815;SDS011;25928;51.062;13.752;2022-09-14T01:09:36;8.43;;;5.80;;
815;SDS011;25928;51.062;13.752;2022-09-14T01:14:56;6.73;;;5.93;;
815;SDS011;25928;51.062;13.752;2022-09-14T01:28:42;7.63;;;5.87;;
815;SDS011;25928;51.062;13.752;2022-09-14T01:31:19;6.97;;;6.30;;
815;SDS011;25928;51.062;13.752;2022-09-14T01:33:53;6.17;;;5.57;;
815;SDS011;25928;51.062;13.752;2022-09-14T01:36:23;6.90;;;6.30;;
815;SDS011;25928;51.062;13.752;2022-09-14T01:38:51;6.30;;;5.80;;
815;SDS011;25928;51.062;13.752;2022-09-14T01:41:20;5.90;;;5.30;;
815;SDS011;25928;51.062;13.752;2022-09-14T01:43:57;10.00;;;6.40;;
815;SDS011;25928;51.062;13.752;2022-09-14T01:46:30;9.30;;;6.10;;
815;SDS011;25928;51.062;13.752;2022-09-14T01:49:17;6.57;;;5.97;;
815;SDS011;25928;51.062;13.752;2022-09-14T01:52:03;5.80;;;5.30;;
815;SDS011;25928;51.062;13.752;2022-09-14T01:54:36;6.97;;;5.93;;
815;SDS011;25928;51.062;13.752;2022-09-14T01:57:17;6.73;;;5.77;;
815;SDS011;25928;51.062;13.752;2022-09-14T01:59:57;6.67;;;6.07;;
815;SDS011;25928;51.062;13.752;2022-09-14T02:07:37;8.67;;;6.53;;
815;SDS011;25928;51.062;13.752;2022-09-14T02:10:04;7.10;;;6.40;;
815;SDS011;25928;51.062;13.752;2022-09-14T02:12:33;11.10;;;6.40;;
815;SDS011;25928;51.062;13.752;2022-09-14T02:14:59;6.73;;;6.13;;
815;SDS011;25928;51.062;13.752;2022-09-14T02:17:25;6.43;;;5.80;;
815;SDS011;25928;51.062;13.752;2022-09-14T02:20:00;7.57;;;6.70;;
815;SDS011;25928;51.062;13.752;2022-09-14T02:22:29;6.57;;;5.90;;
815;SDS011;25928;51.062;13.752;2022-09-14T02:24:55;6.47;;;5.80;;
815;SDS011;25928;51.062;13.752;2022-09-14T02:27:23;7.13;;;6.20;;
815;SDS011;25928;51.062;13.752;2022-09-14T02:29:49;6.40;;;5.80;;
815;SDS011;25928;51.062;13.752;2022-09-14T02:32:29;7.17;;;6.47;;
815;SDS011;25928;51.062;13.752;2022-09-14T02:35:06;7.20;;;6.50;;
815;SDS011;25928;51.062;13.752;2022-09-14T02:43:01;8.30;;;6.93;;
815;SDS011;25928;51.062;13.752;2022-09-14T02:49:00;8.80;;;6.80;;
815;SDS011;25928;51.062;13.752;2022-09-14T02:51:56;9.40;;;7.00;;
815;SDS011;25928;51.062;13.752;2022-09-14T02:54:32;7.30;;;6.20;;
815;SDS011;25928;51.062;13.752;2022-09-14T02:57:03;7.30;;;6.33;;
815;SDS011;25928;51.062;13.752;2022-09-14T02:59:29;7.17;;;6.47;;
815;SDS011;25928;51.062;13.752;2022-09-14T03:01:55;7.37;;;6.27;;
815;SDS011;25928;51.062;13.752;2022-09-14T03:04:22;7.40;;;6.80;;
815;SDS011;25928;51.062;13.752;2022-09-14T03:06:49;7.70;;;6.90;;
815;SDS011;25928;51.062;13.752;2022-09-14T03:09:15;7.03;;;6.50;;
815;SDS011;25928;51.062;13.752;2022-09-14T03:11:40;9.43;;;6.83;;
815;SDS011;25928;51.062;13.752;2022-09-14T03:14:06;7.10;;;6.40;;
815;SDS011;25928;51.062;13.752;2022-09-14T03:16:33;6.77;;;6.17;;
815;SDS011;25928;51.062;13.752;2022-09-14T03:18:58;7.33;;;6.63;;
815;SDS011;25928;51.062;13.752;2022-09-14T03:21:25;8.50;;;6.53;;
815;SDS011;25928;51.062;13.752;2022-09-14T03:23:51;6.73;;;6.13;;
815;SDS011;25928;51.062;13.752;2022-09-14T03:26:20;7.80;;;7.10;;
815;SDS011;25928;51.062;13.752;2022-09-14T03:28:50;8.00;;;6.70;;
815;SDS011;25928;51.062;13.752;2022-09-14T03:31:17;7.30;;;6.60;;
815;SDS011;25928;51.062;13.752;2022-09-14T03:33:43;8.33;;;6.50;;
815;SDS011;25928;51.062;13.752;2022-09-14T03:36:16;7.60;;;6.80;;
815;SDS011;25928;51.062;13.752;2022-09-14T03:38:46;8.23;;;7.43;;
815;SDS011;25928;51.062;13.752;2022-09-14T03:41:14;6.80;;;5.97;;
815;SDS011;25928;51.062;13.752;2022-09-14T03:43:40;8.60;;;5.47;;
815;SDS011;25928;51.062;13.752;2022-09-14T03:46:11;6.93;;;6.07;;
815;SDS011;25928;51.062;13.752;2022-09-14T03:48:38;7.00;;;6.40;;
815;SDS011;25928;51.062;13.752;2022-09-14T03:51:05;7.70;;;6.53;;
815;SDS011;25928;51.062;13.752;2022-09-14T03:53:32;7.03;;;6.30;;
815;SDS011;25928;51.062;13.752;2022-09-14T03:55:58;7.60;;;6.90;;
815;SDS011;25928;51.062;13.752;2022-09-14T03:58:23;7.23;;;5.77;;
815;SDS011;25928;51.062;13.752;2022-09-14T04:00:49;6.57;;;5.97;;
815;SDS011;25928;51.062;13.752;2022-09-14T04:03:15;7.37;;;5.80;;
815;SDS011;25928;51.062;13.752;2022-09-14T04:05:41;6.93;;;6.33;;
815;SDS011;25928;51.062;13.752;2022-09-14T04:08:09;7.30;;;6.60;;
815;SDS011;25928;51.062;13.752;2022-09-14T04:10:35;8.27;;;6.50;;
815;SDS011;25928;51.062;13.752;2022-09-14T04:13:02;6.50;;;5.90;;
815;SDS011;25928;51.062;13.752;2022-09-14T04:15:28;6.13;;;5.57;;
815;SDS011;25928;51.062;13.752;2022-09-14T04:17:53;7.30;;;6.00;;
815;SDS011;25928;51.062;13.752;2022-09-14T04:20:19;8.33;;;6.23;;
815;SDS011;25928;51.062;13.752;2022-09-14T04:22:44;7.03;;;6.40;;
815;SDS011;25928;51.062;13.752;2022-09-14T04:25:11;7.67;;;6.50;;
815;SDS011;25928;51.062;13.752;2022-09-14T04:27:36;7.50;;;6.80;;
815;SDS011;25928;51.062;13.752;2022-09-14T04:30:03;8.37;;;6.50;;
815;SDS011;25928;51.062;13.752;2022-09-14T04:32:30;6.80;;;6.20;;
815;SDS011;25928;51.062;13.752;2022-09-14T04:34:56;6.70;;;6.10;;
815;SDS011;25928;51.062;13.752;2022-09-14T04:37:22;8.50;;;7.00;;
815;SDS011;25928;51.062;13.752;2022-09-14T04:39:47;9.50;;;7.37;;
815;SDS011;25928;51.062;13.752;2022-09-14T04:42:13;6.60;;;6.10;;
815;SDS011;25928;51.062;13.752;2022-09-14T04:44:38;7.10;;;6.40;;
815;SDS011;25928;51.062;13.752;2022-09-14T04:47:05;8.73;;;7.73;;
815;SDS011;25928;51.062;13.752;2022-09-14T04:49:31;7.57;;;6.67;;
815;SDS011;25928;51.062;13.752;2022-09-14T04:51:57;7.47;;;6.77;;
815;SDS011;25928;51.062;13.752;2022-09-14T04:54:22;6.77;;;6.17;;
815;SDS011;25928;51.062;13.752;2022-09-14T04:56:48;7.63;;;6.93;;
815;SDS011;25928;51.062;13.752;2022-09-14T04:59:13;10.03;;;7.70;;
815;SDS011;25928;51.062;13.752;2022-09-14T05:01:40;7.60;;;6.90;;
815;SDS011;25928;51.062;13.752;2022-09-14T05:04:07;7.80;;;7.00;;
815;SDS011;25928;51.062;13.752;2022-09-14T05:06:35;8.23;;;7.50;;
815;SDS011;25928;51.062;13.752;2022-09-14T05:09:03;8.20;;;7.37;;
815;SDS011;25928;51.062;13.752;2022-09-14T05:11:31;10.53;;;6.50;;
815;SDS011;25928;51.062;13.752;2022-09-14T05:13:59;8.10;;;7.30;;
815;SDS011;25928;51.062;13.752;2022-09-14T05:16:27;7.97;;;7.27;;
815;SDS011;25928;51.062;13.752;2022-09-14T05:19:03;7.00;;;6.30;;
815;SDS011;25928;51.062;13.752;2022-09-14T05:21:31;12.20;;;7.33;;
815;SDS011;25928;51.062;13.752;2022-09-14T05:24:00;8.23;;;6.80;;
815;SDS011;25928;51.062;13.752;2022-09-14T05:26:29;11.83;;;6.97;;
815;SDS011;25928;51.062;13.752;2022-09-14T05:28:56;7.37;;;6.67;;
815;SDS011;25928;51.062;13.752;2022-09-14T05:31:23;8.23;;;7.33;;
815;SDS011;25928;51.062;13.752;2022-09-14T05:33:50;8.00;;;7.23;;
815;SDS011;25928;51.062;13.752;2022-09-14T05:36:16;8.53;;;7.73;;
815;SDS011;25928;51.062;13.752;2022-09-14T05:38:42;8.63;;;7.40;;
815;SDS011;25928;51.062;13.752;2022-09-14T05:41:09;9.47;;;7.30;;
815;SDS011;25928;51.062;13.752;2022-09-14T05:43:36;9.50;;;7.90;;
815;SDS011;25928;51.062;13.752;2022-09-14T05:46:06;8.80;;;7.87;;
815;SDS011;25928;51.062;13.752;2022-09-14T05:48:36;7.40;;;6.70;;
815;SDS011;25928;51.062;13.752;2022-09-14T05:51:07;7.47;;;6.77;;
815;SDS011;25928;51.062;13.752;2022-09-14T05:53:35;8.50;;;7.80;;
815;SDS011;25928;51.062;13.752;2022-09-14T05:56:05;8.43;;;7.63;;
815;SDS011;25928;51.062;13.752;2022-09-14T05:58:35;8.33;;;7.63;;
815;SDS011;25928;51.062;13.752;2022-09-14T06:01:05;8.37;;;7.50;;
815;SDS011;25928;51.062;13.752;2022-09-14T06:03:32;10.53;;;7.87;;
815;SDS011;25928;51.062;13.752;2022-09-14T06:05:58;10.30;;;8.43;;
815;SDS011;25928;51.062;13.752;2022-09-14T06:08:24;10.50;;;7.30;;
815;SDS011;25928;51.062;13.752;2022-09-14T06:10:50;7.97;;;7.27;;
815;SDS011;25928;51.062;13.752;2022-09-14T06:13:15;10.23;;;7.20;;
815;SDS011;25928;51.062;13.752;2022-09-14T06:15:41;9.37;;;7.97;;
815;SDS011;25928;51.062;13.752;2022-09-14T06:18:07;9.10;;;8.13;;
815;SDS011;25928;51.062;13.752;2022-09-14T06:20:32;8.70;;;7.33;;
815;SDS011;25928;51.062;13.752;2022-09-14T06:22:58;9.30;;;8.10;;
815;SDS011;25928;51.062;13.752;2022-09-14T06:25:23;13.40;;;8.47;;
815;SDS011;25928;51.062;13.752;2022-09-14T06:27:51;8.80;;;7.60;;
815;SDS011;25928;51.062;13.752;2022-09-14T06:30:18;10.70;;;7.47;;
815;SDS011;25928;51.062;13.752;2022-09-14T06:32:45;11.63;;;8.20;;
815;SDS011;25928;51.062;13.752;2022-09-14T06:35:11;8.37;;;7.57;;
815;SDS011;25928;51.062;13.752;2022-09-14T06:37:37;10.43;;;8.47;;
815;SDS011;25928;51.062;13.752;2022-09-14T06:40:02;9.30;;;8.40;;
815;SDS011;25928;51.062;13.752;2022-09-14T06:42:28;10.23;;;8.23;;
815;SDS011;25928;51.062;13.752;2022-09-14T06:44:55;8.40;;;7.30;;
815;SDS011;25928;51.062;13.752;2022-09-14T06:47:20;8.47;;;7.30;;
815;SDS011;25928;51.062;13.752;2022-09-14T06:49:46;8.73;;;7.83;;
815;SDS011;25928;51.062;13.752;2022-09-14T06:52:13;11.23;;;7.47;;
815;SDS011;25928;51.062;13.752;2022-09-14T06:54:39;9.20;;;7.30;;
815;SDS011;25928;51.062;13.752;2022-09-14T06:57:05;8.40;;;7.50;;
815;SDS011;25928;51.062;13.752;2022-09-14T06:59:30;9.07;;;8.17;;
815;SDS011;25928;51.062;13.752;2022-09-14T07:01:56;11.90;;;7.63;;
815;SDS011;25928;51.062;13.752;2022-09-14T07:04:21;10.10;;;7.43;;
815;SDS011;25928;51.062;13.752;2022-09-14T07:06:49;8.90;;;7.83;;
815;SDS011;25928;51.062;13.752;2022-09-14T07:09:15;11.13;;;8.07;;
815;SDS011;25928;51.062;13.752;2022-09-14T07:11:42;11.80;;;8.00;;
815;SDS011;25928;51.062;13.752;2022-09-14T07:14:08;11.20;;;8.50;;
815;SDS011;25928;51.062;13.752;2022-09-14T07:16:35;9.33;;;7.87;;
815;SDS011;25928;51.062;13.752;2022-09-14T07:19:03;10.00;;;7.80;;
815;SDS011;25928;51.062;13.752;2022-09-14T07:21:30;9.00;;;8.20;;
815;SDS011;25928;51.062;13.752;2022-09-14T07:23:57;10.67;;;8.50;;
815;SDS011;25928;51.062;13.752;2022-09-14T07:26:24;13.30;;;8.63;;
815;SDS011;25928;51.062;13.752;2022-09-14T07:28:55;9.83;;;8.83;;
815;SDS011;25928;51.062;13.752;2022-09-14T07:31:24;8.87;;;7.97;;
815;SDS011;25928;51.062;13.752;2022-09-14T07:33:51;15.70;;;11.90;;
815;SDS011;25928;51.062;13.752;2022-09-14T07:36:19;10.83;;;9.73;;
815;SDS011;25928;51.062;13.752;2022-09-14T07:38:45;9.37;;;7.90;;
815;SDS011;25928;51.062;13.752;2022-09-14T07:41:10;9.53;;;8.53;;
815;SDS011;25928;51.062;13.752;2022-09-14T07:43:36;9.47;;;8.57;;
815;SDS011;25928;51.062;13.752;2022-09-14T07:46:05;13.40;;;9.03;;
815;SDS011;25928;51.062;13.752;2022-09-14T07:48:32;11.40;;;8.60;;
815;SDS011;25928;51.062;13.752;2022-09-14T07:51:05;9.10;;;8.20;;
815;SDS011;25928;51.062;13.752;2022-09-14T07:53:35;11.77;;;8.23;;
815;SDS011;25928;51.062;13.752;2022-09-14T07:56:06;9.27;;;8.33;;
815;SDS011;25928;51.062;13.752;2022-09-14T07:58:32;9.87;;;8.70;;
815;SDS011;25928;51.062;13.752;2022-09-14T08:00:59;9.90;;;7.53;;
815;SDS011;25928;51.062;13.752;2022-09-14T08:03:25;9.77;;;8.77;;
815;SDS011;25928;51.062;13.752;2022-09-14T08:05:59;9.93;;;9.03;;
815;SDS011;25928;51.062;13.752;2022-09-14T08:08:30;8.07;;;7.37;;
815;SDS011;25928;51.062;13.752;2022-09-14T08:11:10;9.90;;;8.97;;
815;SDS011;25928;51.062;13.752;2022-09-14T08:13:39;10.00;;;8.97;;
815;SDS011;25928;51.062;13.752;2022-09-14T08:16:06;10.33;;;9.10;;
815;SDS011;25928;51.062;13.752;2022-09-14T08:18:33;9.43;;;8.53;;
815;SDS011;25928;51.062;13.752;2022-09-14T08:21:10;9.97;;;9.07;;
815;SDS011;25928;51.062;13.752;2022-09-14T08:23:39;10.20;;;9.20;;
815;SDS011;25928;51.062;13.752;2022-09-14T08:26:10;10.13;;;8.30;;
815;SDS011;25928;51.062;13.752;2022-09-14T08:28:47;9.90;;;8.30;;
815;SDS011;25928;51.062;13.752;2022-09-14T08:31:21;10.63;;;9.63;;
815;SDS011;25928;51.062;13.752;2022-09-14T08:33:49;10.77;;;9.83;;
815;SDS011;25928;51.062;13.752;2022-09-14T08:36:17;11.27;;;10.07;;
815;SDS011;25928;51.062;13.752;2022-09-14T08:38:44;9.23;;;7.97;;
815;SDS011;25928;51.062;13.752;2022-09-14T08:41:14;9.93;;;8.90;;
815;SDS011;25928;51.062;13.752;2022-09-14T08:43:44;11.63;;;10.43;;
815;SDS011;25928;51.062;13.752;2022-09-14T08:46:13;10.30;;;9.40;;
815;SDS011;25928;51.062;13.752;2022-09-14T08:48:48;11.40;;;10.20;;
815;SDS011;25928;51.062;13.752;2022-09-14T08:51:13;12.43;;;10.70;;
815;SDS011;25928;51.062;13.752;2022-09-14T08:53:41;11.80;;;10.60;;
815;SDS011;25928;51.062;13.752;2022-09-14T08:56:23;11.50;;;10.30;;
815;SDS011;25928;51.062;13.752;2022-09-14T09:04:53;12.60;;;10.33;;
815;SDS011;25928;51.062;13.752;2022-09-14T09:08:27;12.40;;;11.10;;
815;SDS011;25928;51.062;13.752;2022-09-14T09:10:41;12.33;;;11.17;;
815;SDS011;25928;51.062;13.752;2022-09-14T09:13:10;11.03;;;9.93;;
815;SDS011;25928;51.062;13.752;2022-09-14T09:15:41;11.70;;;10.50;;
815;SDS011;25928;51.062;13.752;2022-09-14T09:20:56;15.43;;;12.50;;
815;SDS011;25928;51.062;13.752;2022-09-14T09:23:26;14.00;;;12.43;;
815;SDS011;25928;51.062;13.752;2022-09-14T09:25:57;13.73;;;12.33;;
815;SDS011;25928;51.062;13.752;2022-09-14T09:28:40;13.80;;;12.17;;
815;SDS011;25928;51.062;13.752;2022-09-14T09:31:17;19.13;;;13.53;;
815;SDS011;25928;51.062;13.752;2022-09-14T09:33:47;14.90;;;13.50;;
815;SDS011;25928;51.062;13.752;2022-09-14T09:36:13;14.37;;;13.03;;
815;SDS011;25928;51.062;13.752;2022-09-14T09:38:40;15.37;;;13.87;;
815;SDS011;25928;51.062;13.752;2022-09-14T09:41:10;15.20;;;13.27;;
815;SDS011;25928;51.062;13.752;2022-09-14T09:46:30;16.70;;;13.13;;
815;SDS011;25928;51.062;13.752;2022-09-14T09:48:58;14.03;;;12.73;;
815;SDS011;25928;51.062;13.752;2022-09-14T09:51:29;15.83;;;14.20;;
815;SDS011;25928;51.062;13.752;2022-09-14T09:56:37;14.70;;;13.20;;
815;SDS011;25928;51.062;13.752;2022-09-14T09:59:48;15.00;;;13.60;;
815;SDS011;25928;51.062;13.752;2022-09-14T10:04:54;13.33;;;12.03;;
815;SDS011;25928;51.062;13.752;2022-09-14T10:07:20;14.43;;;12.83;;
815;SDS011;25928;51.062;13.752;2022-09-14T10:09:55;14.40;;;12.90;;
815;SDS011;25928;51.062;13.752;2022-09-14T10:12:22;15.07;;;13.57;;
815;SDS011;25928;51.062;13.752;2022-09-14T10:14:47;16.40;;;14.70;;
815;SDS011;25928;51.062;13.752;2022-09-14T10:17:21;14.97;;;13.43;;
815;SDS011;25928;51.062;13.752;2022-09-14T10:22:18;16.77;;;15.07;;
815;SDS011;25928;51.062;13.752;2022-09-14T10:24:52;16.17;;;14.60;;
815;SDS011;25928;51.062;13.752;2022-09-14T10:27:38;15.20;;;13.80;;
815;SDS011;25928;51.062;13.752;2022-09-14T10:30:08;16.17;;;14.60;;
815;SDS011;25928;51.062;13.752;2022-09-14T10:32:37;16.87;;;15.27;;
815;SDS011;25928;51.062;13.752;2022-09-14T10:35:10;16.03;;;14.37;;
815;SDS011;25928;51.062;13.752;2022-09-14T10:37:41;16.47;;;14.83;;
815;SDS011;25928;51.062;13.752;2022-09-14T10:40:24;18.30;;;16.40;;
815;SDS011;25928;51.062;13.752;2022-09-14T10:45:40;17.53;;;15.93;;
815;SDS011;25928;51.062;13.752;2022-09-14T10:54:09;16.67;;;15.00;;
815;SDS011;25928;51.062;13.752;2022-09-14T10:56:49;17.57;;;15.87;;
815;SDS011;25928;51.062;13.752;2022-09-14T10:59:29;16.10;;;14.50;;
815;SDS011;25928;51.062;13.752;2022-09-14T11:02:21;16.73;;;15.03;;
815;SDS011;25928;51.062;13.752;2022-09-14T11:05:30;16.87;;;15.30;;
815;SDS011;25928;51.062;13.752;2022-09-14T11:11:20;16.63;;;14.93;;
815;SDS011;25928;51.062;13.752;2022-09-14T11:14:06;18.20;;;16.30;;
815;SDS011;25928;51.062;13.752;2022-09-14T11:25:34;19.10;;;17.07;;
815;SDS011;25928;51.062;13.752;2022-09-14T11:28:17;17.13;;;15.40;;
815;SDS011;25928;51.062;13.752;2022-09-14T11:30:50;18.80;;;16.90;;
815;SDS011;25928;51.062;13.752;2022-09-14T11:33:39;22.03;;;17.90;;
815;SDS011;25928;51.062;13.752;2022-09-14T11:38:52;19.47;;;17.60;;
815;SDS011;25928;51.062;13.752;2022-09-14T11:44:23;17.60;;;15.90;;
815;SDS011;25928;51.062;13.752;2022-09-14T11:52:20;19.53;;;17.37;;
815;SDS011;25928;51.062;13.752;2022-09-14T11:54:47;18.17;;;16.43;;
815;SDS011;25928;51.062;13.752;2022-09-14T11:57:19;17.67;;;15.97;;
815;SDS011;25928;51.062;13.752;2022-09-14T11:59:51;17.23;;;15.63;;
815;SDS011;25928;51.062;13.752;2022-09-14T12:12:39;17.23;;;15.43;;
815;SDS011;25928;51.062;13.752;2022-09-14T12:15:17;18.70;;;16.87;;
815;SDS011;25928;51.062;13.752;2022-09-14T12:17:51;17.00;;;15.30;;
815;SDS011;25928;51.062;13.752;2022-09-14T12:20:26;17.93;;;16.00;;
815;SDS011;25928;51.062;13.752;2022-09-14T12:23:16;18.30;;;16.50;;
815;SDS011;25928;51.062;13.752;2022-09-14T12:25:52;16.70;;;14.97;;
815;SDS011;25928;51.062;13.752;2022-09-14T12:28:26;19.57;;;17.50;;
815;SDS011;25928;51.062;13.752;2022-09-14T12:56:36;20.00;;;17.90;;
815;SDS011;25928;51.062;13.752;2022-09-14T12:59:19;19.13;;;17.33;;
815;SDS011;25928;51.062;13.752;2022-09-14T13:02:15;19.60;;;17.80;;
815;SDS011;25928;51.062;13.752;2022-09-14T13:04:53;18.67;;;16.93;;
815;SDS011;25928;51.062;13.752;2022-09-14T13:07:21;19.70;;;17.90;;
815;SDS011;25928;51.062;13.752;2022-09-14T13:09:53;19.60;;;17.70;;
815;SDS011;25928;51.062;13.752;2022-09-14T13:12:29;21.33;;;19.23;;
815;SDS011;25928;51.062;13.752;2022-09-14T13:15:06;18.20;;;16.40;;
815;SDS011;25928;51.062;13.752;2022-09-14T13:17:54;19.27;;;17.47;;
815;SDS011;25928;51.062;13.752;2022-09-14T13:20:24;18.43;;;16.60;;
815;SDS011;25928;51.062;13.752;2022-09-14T13:22:50;18.10;;;16.03;;
815;SDS011;25928;51.062;13.752;2022-09-14T13:28:14;17.57;;;15.87;;
815;SDS011;25928;51.062;13.752;2022-09-14T13:30:42;16.90;;;15.20;;
815;SDS011;25928;51.062;13.752;2022-09-14T13:33:24;17.77;;;16.13;;
815;SDS011;25928;51.062;13.752;2022-09-14T13:35:55;19.93;;;17.93;;
815;SDS011;25928;51.062;13.752;2022-09-14T13:38:23;24.97;;;17.40;;
815;SDS011;25928;51.062;13.752;2022-09-14T13:43:53;19.67;;;17.70;;
815;SDS011;25928;51.062;13.752;2022-09-14T13:46:21;20.87;;;18.93;;
815;SDS011;25928;51.062;13.752;2022-09-14T13:48:49;21.07;;;18.57;;
815;SDS011;25928;51.062;13.752;2022-09-14T13:51:16;19.80;;;17.80;;
815;SDS011;25928;51.062;13.752;2022-09-14T13:53:51;18.77;;;16.97;;
815;SDS011;25928;51.062;13.752;2022-09-14T14:04:05;18.60;;;16.90;;
815;SDS011;25928;51.062;13.752;2022-09-14T14:07:05;17.87;;;16.03;;
815;SDS011;25928;51.062;13.752;2022-09-14T14:09:39;19.50;;;17.43;;
815;SDS011;25928;51.062;13.752;2022-09-14T14:12:23;19.50;;;17.63;;
815;SDS011;25928;51.062;13.752;2022-09-14T14:17:44;17.23;;;15.50;;
815;SDS011;25928;51.062;13.752;2022-09-14T14:23:32;17.93;;;16.13;;
815;SDS011;25928;51.062;13.752;2022-09-14T14:25:51;18.10;;;16.40;;
815;SDS011;25928;51.062;13.752;2022-09-14T14:30:51;18.27;;;16.47;;
815;SDS011;25928;51.062;13.752;2022-09-14T14:33:18;21.20;;;19.10;;
815;SDS011;25928;51.062;13.752;2022-09-14T14:35:44;18.80;;;17.00;;
815;SDS011;25928;51.062;13.752;2022-09-14T14:38:15;18.37;;;16.57;;
815;SDS011;25928;51.062;13.752;2022-09-14T14:40:42;18.13;;;16.33;;
815;SDS011;25928;51.062;13.752;2022-09-14T14:43:11;19.27;;;17.57;;
815;SDS011;25928;51.062;13.752;2022-09-14T14:45:46;20.47;;;18.07;;
815;SDS011;25928;51.062;13.752;2022-09-14T14:48:12;19.93;;;17.80;;
815;SDS011;25928;51.062;13.752;2022-09-14T14:50:38;19.13;;;17.23;;
815;SDS011;25928;51.062;13.752;2022-09-14T14:53:04;19.03;;;16.90;;
815;SDS011;25928;51.062;13.752;2022-09-14T14:55:30;21.60;;;17.23;;
815;SDS011;25928;51.062;13.752;2022-09-14T14:58:00;19.77;;;17.70;;
815;SDS011;25928;51.062;13.752;2022-09-14T15:00:32;17.10;;;15.07;;
815;SDS011;25928;51.062;13.752;2022-09-14T15:02:59;16.93;;;15.27;;
815;SDS011;25928;51.062;13.752;2022-09-14T15:05:25;17.60;;;14.27;;
815;SDS011;25928;51.062;13.752;2022-09-14T15:07:51;13.77;;;12.47;;
815;SDS011;25928;51.062;13.752;2022-09-14T15:10:19;15.67;;;13.40;;
815;SDS011;25928;51.062;13.752;2022-09-14T15:12:46;14.67;;;13.27;;
815;SDS011;25928;51.062;13.752;2022-09-14T15:15:12;15.30;;;12.97;;
815;SDS011;25928;51.062;13.752;2022-09-14T15:17:39;15.83;;;12.33;;
815;SDS011;25928;51.062;13.752;2022-09-14T15:20:05;14.40;;;13.00;;
815;SDS011;25928;51.062;13.752;2022-09-14T15:22:31;15.20;;;13.70;;
815;SDS011;25928;51.062;13.752;2022-09-14T15:24:57;13.00;;;11.80;;
815;SDS011;25928;51.062;13.752;2022-09-14T15:27:22;15.60;;;13.90;;
815;SDS011;25928;51.062;13.752;2022-09-14T15:29:48;14.70;;;13.20;;
815;SDS011;25928;51.062;13.752;2022-09-14T15:32:13;17.60;;;13.50;;
815;SDS011;25928;51.062;13.752;2022-09-14T15:34:39;14.67;;;13.13;;
815;SDS011;25928;51.062;13.752;2022-09-14T15:37:05;17.10;;;12.67;;
815;SDS011;25928;51.062;13.752;2022-09-14T15:39:30;14.33;;;12.83;;
815;SDS011;25928;51.062;13.752;2022-09-14T15:41:57;17.37;;;15.50;;
815;SDS011;25928;51.062;13.752;2022-09-14T15:44:22;16.73;;;13.30;;
815;SDS011;25928;51.062;13.752;2022-09-14T15:46:48;17.80;;;14.00;;
815;SDS011;25928;51.062;13.752;2022-09-14T15:49:18;18.70;;;16.20;;
815;SDS011;25928;51.062;13.752;2022-09-14T15:51:45;18.33;;;15.17;;
815;SDS011;25928;51.062;13.752;2022-09-14T15:54:13;16.17;;;14.50;;
815;SDS011;25928;51.062;13.752;2022-09-14T15:56:39;14.93;;;13.33;;
815;SDS011;25928;51.062;13.752;2022-09-14T15:59:06;14.40;;;12.90;;
815;SDS011;25928;51.062;13.752;2022-09-14T16:01:32;15.70;;;14.00;;
815;SDS011;25928;51.062;13.752;2022-09-14T16:03:58;15.90;;;14.30;;
815;SDS011;25928;51.062;13.752;2022-09-14T16:06:27;15.00;;;13.43;;
815;SDS011;25928;51.062;13.752;2022-09-14T16:08:54;15.47;;;13.87;;
815;SDS011;25928;51.062;13.752;2022-09-14T16:11:20;15.60;;;13.60;;
815;SDS011;25928;51.062;13.752;2022-09-14T16:13:46;15.40;;;13.10;;
815;SDS011;25928;51.062;13.752;2022-09-14T16:16:14;15.37;;;13.30;;
815;SDS011;25928;51.062;13.752;2022-09-14T16:18:40;15.87;;;13.50;;
815;SDS011;25928;51.062;13.752;2022-09-14T16:21:10;16.47;;;14.57;;
815;SDS011;25928;51.062;13.752;2022-09-14T16:23:41;16.83;;;13.80;;
815;SDS011;25928;51.062;13.752;2022-09-14T16:26:16;21.13;;;15.27;;
815;SDS011;25928;51.062;13.752;2022-09-14T16:28:44;16.30;;;14.03;;
815;SDS011;25928;51.062;13.752;2022-09-14T16:31:12;16.93;;;13.77;;
815;SDS011;25928;51.062;13.752;2022-09-14T16:33:43;16.13;;;14.03;;
815;SDS011;25928;51.062;13.752;2022-09-14T16:36:13;16.13;;;13.80;;
815;SDS011;25928;51.062;13.752;2022-09-14T16:38:40;17.30;;;14.03;;
815;SDS011;25928;51.062;13.752;2022-09-14T16:41:07;19.90;;;14.60;;
815;SDS011;25928;51.062;13.752;2022-09-14T16:43:33;17.00;;;14.97;;
815;SDS011;25928;51.062;13.752;2022-09-14T16:46:07;16.40;;;14.73;;
815;SDS011;25928;51.062;13.752;2022-09-14T16:48:41;23.43;;;15.50;;
815;SDS011;25928;51.062;13.752;2022-09-14T16:51:08;19.73;;;16.60;;
815;SDS011;25928;51.062;13.752;2022-09-14T16:53:35;23.57;;;17.50;;
815;SDS011;25928;51.062;13.752;2022-09-14T16:56:05;18.23;;;16.43;;
815;SDS011;25928;51.062;13.752;2022-09-14T16:58:32;18.97;;;17.07;;
815;SDS011;25928;51.062;13.752;2022-09-14T17:01:08;23.33;;;16.30;;
815;SDS011;25928;51.062;13.752;2022-09-14T17:03:40;17.70;;;15.67;;
815;SDS011;25928;51.062;13.752;2022-09-14T17:06:08;20.80;;;15.77;;
815;SDS011;25928;51.062;13.752;2022-09-14T17:08:35;17.17;;;15.37;;
815;SDS011;25928;51.062;13.752;2022-09-14T17:11:05;16.87;;;15.07;;
815;SDS011;25928;51.062;13.752;2022-09-14T17:13:31;18.00;;;15.10;;
815;SDS011;25928;51.062;13.752;2022-09-14T17:16:01;18.00;;;15.53;;
815;SDS011;25928;51.062;13.752;2022-09-14T17:18:35;15.83;;;14.23;;
815;SDS011;25928;51.062;13.752;2022-09-14T17:21:06;16.37;;;14.80;;
815;SDS011;25928;51.062;13.752;2022-09-14T17:23:33;16.27;;;14.57;;
815;SDS011;25928;51.062;13.752;2022-09-14T17:25:59;16.90;;;15.30;;